Time;durP1;ratioP1;P1;durP2;ratioP2;P2;SDS_P1;SDS_P2;PMS_P1;PMS_P2;Temp;Humidity;BMP_temperature;BMP_pressure;BME280_temperature;BME280_humidity;BME280_pressure;Samples;Min_cycle;Max_cycle;Signal;HPM_P1;HPM_P2
2022/12/04 00:00:26;;;;;;;238.18;123.00;;;;;;;0.02;78.74;97791.76;1824614;77;25672;-75
2022/12/04 00:02:55;;;;;;;220.75;113.15;;;;;;;0.02;78.76;97789.10;1811869;77;25210;-71
2022/12/04 00:05:21;;;;;;;230.70;115.52;;;;;;;0.01;78.75;97782.11;1845459;77;25750;-72
2022/12/04 00:07:48;;;;;;;224.30;113.77;;;;;;;0.00;78.78;97787.09;1841665;77;25661;-75
2022/12/04 00:10:15;;;;;;;217.55;113.62;;;;;;;-0.04;78.78;97783.87;1798320;77;27416;-72
2022/12/04 00:12:41;;;;;;;221.18;113.30;;;;;;;-0.03;78.81;97788.69;1798196;76;25901;-73
2022/12/04 00:15:10;;;;;;;222.78;117.33;;;;;;;-0.03;78.79;97792.19;1825629;77;25625;-73
2022/12/04 00:17:36;;;;;;;219.50;113.68;;;;;;;-0.01;78.84;97792.05;1822045;77;25735;-72
2022/12/04 00:20:05;;;;;;;215.32;112.17;;;;;;;0.00;78.89;97797.20;1804236;76;26031;-72
2022/12/04 00:22:32;;;;;;;218.88;114.85;;;;;;;0.01;78.80;97802.02;1829948;77;28271;-72
2022/12/04 00:24:59;;;;;;;208.87;109.27;;;;;;;-0.02;78.74;97804.48;1810795;76;25826;-72
2022/12/04 00:27:25;;;;;;;217.20;109.67;;;;;;;-0.06;78.73;97807.53;1803701;77;25654;-73
2022/12/04 00:29:52;;;;;;;204.47;109.03;;;;;;;-0.07;78.76;97805.84;1803650;76;25403;-73
2022/12/04 00:32:18;;;;;;;209.20;107.45;;;;;;;-0.08;78.79;97806.82;1821188;76;25807;-72
2022/12/04 00:34:45;;;;;;;216.27;110.63;;;;;;;-0.08;78.77;97805.49;1818768;77;27417;-72
2022/12/04 00:37:11;;;;;;;214.40;111.10;;;;;;;-0.12;78.77;97801.45;1803574;77;25763;-72
2022/12/04 00:39:38;;;;;;;217.57;116.77;;;;;;;-0.15;78.83;97793.75;1803538;77;25744;-72
2022/12/04 00:42:05;;;;;;;216.40;116.67;;;;;;;-0.20;78.90;97803.44;1812671;76;25786;-73
2022/12/04 00:44:31;;;;;;;231.50;118.67;;;;;;;-0.20;79.05;97805.25;1850982;76;25687;-73
2022/12/04 00:46:58;;;;;;;248.68;126.33;;;;;;;-0.17;79.11;97795.70;1850988;77;27353;-73
2022/12/04 00:49:24;;;;;;;257.95;127.67;;;;;;;-0.17;79.14;97795.70;1840879;77;25699;-72
2022/12/04 00:51:51;;;;;;;249.07;124.00;;;;;;;-0.15;79.15;97799.06;1828345;76;25760;-71
2022/12/04 00:54:18;;;;;;;238.90;119.02;;;;;;;-0.12;79.23;97798.80;1850878;77;25647;-72
2022/12/04 00:56:44;;;;;;;236.68;122.00;;;;;;;-0.12;79.12;97790.32;1830637;77;25730;-71
2022/12/04 00:59:12;;;;;;;239.25;121.17;;;;;;;-0.11;79.09;97795.14;1836983;77;28194;-73
2022/12/04 01:01:39;;;;;;;241.15;130.43;;;;;;;-0.14;79.15;97790.13;1803353;77;25644;-73
2022/12/04 01:04:06;;;;;;;242.10;123.90;;;;;;;-0.13;79.21;97791.81;1803547;77;25732;-72
2022/12/04 01:06:34;;;;;;;239.17;126.38;;;;;;;-0.15;79.20;97793.75;1849462;77;25686;-72
2022/12/04 01:09:04;;;;;;;250.30;123.65;;;;;;;-0.16;79.24;97798.22;1823285;77;25799;-75
2022/12/04 01:11:31;;;;;;;231.43;119.67;;;;;;;-0.15;79.22;97784.47;1803504;76;28283;-74
2022/12/04 01:13:58;;;;;;;242.72;122.05;;;;;;;-0.15;79.24;97782.66;1803433;77;26425;-73
2022/12/04 01:16:30;;;;;;;225.85;117.42;;;;;;;-0.14;79.17;97776.86;1799831;77;26308;-74
2022/12/04 01:18:57;;;;;;;209.50;109.90;;;;;;;-0.18;79.15;97782.08;1772806;79;26358;-74
2022/12/04 01:21:24;;;;;;;207.98;111.00;;;;;;;-0.21;79.26;97776.55;1768463;80;25998;-73
2022/12/04 01:23:51;;;;;;;196.15;100.85;;;;;;;-0.21;79.31;97778.36;1765055;79;27368;-72
2022/12/04 01:26:17;;;;;;;195.57;102.02;;;;;;;-0.22;79.33;97778.00;1776205;80;25679;-72
2022/12/04 01:28:44;;;;;;;188.10;98.78;;;;;;;-0.22;79.40;97783.31;1759441;80;25766;-71
2022/12/04 01:31:15;;;;;;;186.52;93.67;;;;;;;-0.23;79.39;97774.52;1771454;80;25791;-75
2022/12/04 01:33:42;;;;;;;170.05;92.60;;;;;;;-0.23;79.45;97775.00;1765017;79;25682;-74
2022/12/04 01:36:14;;;;;;;198.07;98.15;;;;;;;-0.21;79.48;97769.07;1773805;80;27341;-72
2022/12/04 01:38:41;;;;;;;217.95;104.72;;;;;;;-0.19;79.44;97764.48;1778025;80;25822;-74
2022/12/04 01:41:10;;;;;;;189.40;92.60;;;;;;;-0.17;79.43;97769.16;1773072;80;25302;-72
2022/12/04 01:43:38;;;;;;;165.00;85.07;;;;;;;-0.17;79.37;97762.53;1757556;80;25780;-71
2022/12/04 01:46:06;;;;;;;157.90;86.78;;;;;;;-0.17;79.32;97766.52;1768010;80;25770;-72
2022/12/04 01:48:44;;;;;;;147.47;80.10;;;;;;;-0.18;79.37;97759.52;1771932;80;27552;-74
2022/12/04 01:51:24;;;;;;;175.47;92.37;;;;;;;-0.17;79.40;97754.57;1659038;86;25853;-72
2022/12/04 01:53:58;;;;;;;175.70;98.25;;;;;;;-0.16;79.35;97752.27;1613909;88;25918;-72
2022/12/04 01:56:38;;;;;;;191.18;100.02;;;;;;;-0.19;79.35;97748.55;1592508;88;25838;-73
2022/12/04 01:59:08;;;;;;;190.00;103.12;;;;;;;-0.23;79.30;97743.16;1610587;88;25775;-71
2022/12/04 02:01:45;;;;;;;176.40;94.83;;;;;;;-0.23;79.36;97747.14;1614095;88;27410;-74
2022/12/04 02:04:12;;;;;;;181.55;98.20;;;;;;;-0.26;79.38;97735.02;1559307;91;25769;-72
2022/12/04 02:06:38;;;;;;;189.90;101.95;;;;;;;-0.28;79.30;97731.65;1560865;91;25898;-74
2022/12/04 02:09:05;;;;;;;184.05;99.13;;;;;;;-0.28;79.32;97729.48;1561100;91;25807;-72
2022/12/04 02:11:39;;;;;;;170.68;94.40;;;;;;;-0.28;79.34;97729.00;1561293;91;25586;-76
2022/12/04 02:14:20;;;;;;;174.97;93.55;;;;;;;-0.27;79.30;97725.86;1561109;91;28231;-75
2022/12/04 02:17:14;;;;;;;163.80;88.03;;;;;;;-0.33;79.17;97733.02;1580439;90;25334;-72
2022/12/04 02:20:18;;;;;;;135.30;76.05;;;;;;;-0.36;79.20;97730.98;1579696;90;25817;-72
2022/12/04 02:23:26;;;;;;;136.60;74.20;;;;;;;-0.38;79.18;97732.12;1583252;90;25828;-72
2022/12/04 02:26:25;;;;;;;114.62;62.88;;;;;;;-0.41;79.21;97730.56;1582994;90;25938;-74
2022/12/04 02:29:29;;;;;;;106.58;57.45;;;;;;;-0.43;79.26;97723.23;1583179;90;27475;-72
2022/12/04 02:32:22;;;;;;;115.45;57.75;;;;;;;-0.45;79.20;97726.49;1583178;90;25783;-72
2022/12/04 02:35:00;;;;;;;113.77;56.33;;;;;;;-0.46;79.17;97723.97;1583246;90;25476;-72
2022/12/04 02:37:35;;;;;;;109.63;55.95;;;;;;;-0.51;79.12;97723.56;1583211;90;25967;-72
2022/12/04 02:40:10;;;;;;;91.65;50.15;;;;;;;-0.56;79.15;97718.64;1581295;90;25950;-72
2022/12/04 02:42:44;;;;;;;93.47;50.38;;;;;;;-0.55;79.22;97722.14;1580901;90;28069;-72
2022/12/04 02:45:21;;;;;;;91.08;50.33;;;;;;;-0.57;79.19;97722.75;1583191;90;25867;-73
2022/12/04 02:47:48;;;;;;;91.97;48.92;;;;;;;-0.59;79.27;97724.20;1575503;88;25777;-76
2022/12/04 02:50:20;;;;;;;89.25;48.65;;;;;;;-0.58;79.32;97723.72;1594215;88;25749;-73
2022/12/04 02:53:00;;;;;;;91.32;50.38;;;;;;;-0.59;79.26;97728.19;1594332;88;25985;-72
2022/12/04 02:55:53;;;;;;;85.05;47.17;;;;;;;-0.60;79.16;97719.03;1515513;93;28251;-72
2022/12/04 02:58:25;;;;;;;95.47;49.75;;;;;;;-0.66;79.06;97716.94;1412377;100;25918;-72
2022/12/04 03:00:54;;;;;;;98.42;53.13;;;;;;;-0.70;79.06;97726.96;1324171;106;32712;-75
2022/12/04 03:03:25;;;;;;;102.87;55.83;;;;;;;-0.76;79.12;97728.84;1334638;106;25894;-72
2022/12/04 03:06:12;;;;;;;102.00;53.80;;;;;;;-0.75;79.26;97727.86;1334590;106;25998;-72
2022/12/04 03:08:53;;;;;;;100.65;55.05;;;;;;;-0.76;79.28;97729.67;1334618;106;27497;-73
2022/12/04 03:11:20;;;;;;;105.05;57.73;;;;;;;-0.77;79.23;97737.27;1338149;106;26033;-72
2022/12/04 03:13:56;;;;;;;99.17;54.23;;;;;;;-0.80;79.09;97726.92;1351677;106;26007;-73
2022/12/04 03:16:31;;;;;;;96.55;54.90;;;;;;;-0.81;79.03;97727.05;1351401;106;26552;-74
2022/12/04 03:19:14;;;;;;;90.77;50.70;;;;;;;-0.86;79.04;97730.13;1279173;112;25859;-73
2022/12/04 03:21:46;;;;;;;84.45;48.58;;;;;;;-0.88;79.12;97729.41;1260598;112;27476;-73
2022/12/04 03:24:20;;;;;;;94.90;50.63;;;;;;;-0.88;79.16;97729.89;1269335;111;26122;-73
2022/12/04 03:26:51;;;;;;;82.08;45.80;;;;;;;-0.88;79.30;97727.24;1257909;113;25928;-72
2022/12/04 03:29:22;;;;;;;92.37;49.97;;;;;;;-0.87;79.22;97733.74;1287831;111;26713;-73
2022/12/04 03:32:09;;;;;;;90.32;50.28;;;;;;;-0.88;79.24;97732.06;1287709;110;25980;-73
2022/12/04 03:34:58;;;;;;;95.53;49.73;;;;;;;-0.91;79.31;97731.48;1287475;111;27504;-73
2022/12/04 03:37:42;;;;;;;87.57;48.35;;;;;;;-0.93;79.52;97732.09;1301478;108;26070;-73
2022/12/04 03:40:22;;;;;;;97.02;50.90;;;;;;;-0.93;79.66;97729.44;1290862;109;25570;-72
2022/12/04 03:43:20;;;;;;;86.67;50.23;;;;;;;-0.91;79.75;97728.34;1290691;109;25830;-73
2022/12/04 03:45:52;;;;;;;96.65;57.45;;;;;;;-0.87;79.79;97731.58;1330696;106;25798;-72
2022/12/04 03:48:24;;;;;;;106.12;60.63;;;;;;;-0.86;79.85;97734.58;1330802;106;27511;-72
2022/12/04 03:51:13;;;;;;;118.77;67.93;;;;;;;-0.86;79.89;97722.66;1330811;107;25982;-73
2022/12/04 03:53:51;;;;;;;111.32;61.13;;;;;;;-0.85;79.96;97717.71;1365071;103;25832;-72
2022/12/04 03:56:25;;;;;;;105.27;59.88;;;;;;;-0.85;80.05;97719.04;1423993;99;25957;-72
2022/12/04 03:58:59;;;;;;;108.72;59.70;;;;;;;-0.81;80.05;97717.78;1425071;99;25405;-72
2022/12/04 04:01:33;;;;;;;98.33;58.38;;;;;;;-0.81;79.99;97717.78;1414189;100;27564;-72
2022/12/04 04:04:03;;;;;;;107.60;58.98;;;;;;;-0.79;80.01;97723.30;1436204;95;25958;-73
2022/12/04 04:06:41;;;;;;;95.85;53.40;;;;;;;-0.78;79.99;97715.70;1478106;95;25853;-73
2022/12/04 04:09:15;;;;;;;94.42;52.17;;;;;;;-0.78;79.93;97717.52;1491865;91;25639;-71
2022/12/04 04:12:08;;;;;;;88.58;47.60;;;;;;;-0.79;79.92;97719.81;1547171;91;25790;-72
2022/12/04 04:25:59;;;;;;;73.30;41.08;;;;;;;-0.82;79.98;97717.42;1639420;84;26489;-72
2022/12/04 04:28:39;;;;;;;79.07;45.45;;;;;;;-0.80;80.10;97716.81;1673959;84;28370;-73
2022/12/04 04:31:41;;;;;;;76.70;42.65;;;;;;;-0.78;80.10;97712.22;1673777;84;25929;-72
2022/12/04 04:34:19;;;;;;;78.80;43.00;;;;;;;-0.75;80.10;97706.66;1674042;84;25734;-73
2022/12/04 04:37:12;;;;;;;78.40;43.30;;;;;;;-0.74;80.10;97710.99;1673890;84;25379;-73
2022/12/04 04:40:10;;;;;;;76.90;43.25;;;;;;;-0.74;80.08;97705.69;1673830;84;26526;-73
2022/12/04 04:42:50;;;;;;;78.33;45.28;;;;;;;-0.78;80.18;97704.27;1673968;84;27397;-72
2022/12/04 04:45:31;;;;;;;79.37;45.90;;;;;;;-0.76;80.22;97714.25;1618646;88;25789;-73
2022/12/04 04:48:14;;;;;;;75.10;42.60;;;;;;;-0.73;80.29;97715.32;1618598;88;25874;-73
2022/12/04 04:50:42;;;;;;;73.10;43.60;;;;;;;-0.70;80.19;97716.84;1617060;88;25870;-73
2022/12/04 04:53:19;;;;;;;74.75;42.40;;;;;;;-0.75;80.08;97714.13;1660439;84;25908;-72
2022/12/04 04:55:47;;;;;;;69.37;42.58;;;;;;;-0.76;80.05;97718.23;1704864;84;27455;-72
2022/12/04 04:58:17;;;;;;;77.55;42.95;;;;;;;-0.79;80.03;97717.16;1705138;84;25787;-73
2022/12/04 05:01:01;;;;;;;78.72;43.92;;;;;;;-0.80;80.03;97716.81;1705125;84;25767;-73
2022/12/04 05:03:29;;;;;;;77.60;43.90;;;;;;;-0.81;79.91;97721.75;1705009;84;25743;-73
2022/12/04 05:05:56;;;;;;;73.83;43.25;;;;;;;-0.82;79.89;97716.94;1705224;84;25838;-72
2022/12/04 05:08:23;;;;;;;77.80;44.25;;;;;;;-0.81;79.89;97724.41;1705165;84;27390;-75
2022/12/04 05:10:50;;;;;;;72.72;42.48;;;;;;;-0.79;79.80;97731.74;1705113;84;25559;-73
2022/12/04 05:13:17;;;;;;;72.82;42.17;;;;;;;-0.82;79.77;97727.54;1705204;84;25759;-73
2022/12/04 05:15:44;;;;;;;65.25;39.85;;;;;;;-0.81;79.78;97733.68;1710722;83;25672;-74
2022/12/04 05:18:10;;;;;;;69.55;39.35;;;;;;;-0.83;79.74;97719.72;1773578;80;25744;-75
2022/12/04 05:20:40;;;;;;;65.97;37.93;;;;;;;-0.84;79.76;97718.03;1738966;81;27416;-75
2022/12/04 05:23:06;;;;;;;61.63;38.30;;;;;;;-0.87;79.78;97718.33;1773399;80;25725;-73
2022/12/04 05:25:33;;;;;;;66.30;41.60;;;;;;;-0.89;79.75;97722.43;1739085;81;25727;-73
2022/12/04 05:28:00;;;;;;;69.32;42.40;;;;;;;-0.89;79.84;97718.94;1773420;80;26145;-75
2022/12/04 05:30:29;;;;;;;63.68;39.00;;;;;;;-0.88;79.91;97717.48;1739084;81;26161;-73
2022/12/04 05:32:55;;;;;;;64.10;38.05;;;;;;;-0.90;79.78;97722.07;1700144;82;27519;-73
2022/12/04 05:35:21;;;;;;;67.87;38.17;;;;;;;-0.92;79.73;97718.70;1670701;84;25670;-73
2022/12/04 05:37:48;;;;;;;77.10;43.83;;;;;;;-0.94;79.74;97715.34;1672051;84;25818;-71
2022/12/04 05:40:14;;;;;;;128.90;67.15;;;;;;;-0.93;79.73;97725.46;1670730;84;25769;-73
2022/12/04 05:42:41;;;;;;;126.45;70.32;;;;;;;-0.93;79.74;97728.11;1717243;82;25814;-73
2022/12/04 05:45:08;;;;;;;130.30;67.58;;;;;;;-0.94;79.80;97728.59;1776224;80;28140;-72
2022/12/04 05:47:42;;;;;;;116.45;62.43;;;;;;;-0.93;79.84;97731.61;1699678;82;25839;-72
2022/12/04 05:50:11;;;;;;;108.40;59.35;;;;;;;-0.94;79.71;97730.41;1720210;82;26924;-72
2022/12/04 05:52:38;;;;;;;95.50;51.48;;;;;;;-0.96;79.70;97728.37;1745288;81;25787;-72
2022/12/04 05:55:05;;;;;;;86.08;48.08;;;;;;;-1.00;79.75;97734.44;1759706;81;25808;-73
2022/12/04 05:57:32;;;;;;;88.87;47.53;;;;;;;-1.04;79.79;97730.84;1759530;81;26886;-72
2022/12/04 05:59:59;;;;;;;98.35;53.23;;;;;;;-1.04;79.90;97732.17;1759676;81;25756;-72
2022/12/04 06:02:26;;;;;;;96.85;52.85;;;;;;;-1.03;79.92;97736.02;1759752;81;25812;-72
2022/12/04 06:04:52;;;;;;;100.78;57.20;;;;;;;-1.01;79.98;97733.24;1785473;78;26120;-75
2022/12/04 06:07:19;;;;;;;97.72;54.88;;;;;;;-1.02;80.06;97725.78;1780015;79;25923;-75
2022/12/04 06:09:45;;;;;;;95.38;54.33;;;;;;;-1.02;80.10;97732.89;1802290;79;27412;-73
2022/12/04 06:12:13;;;;;;;99.20;56.00;;;;;;;-1.01;80.11;97735.89;1774439;79;25663;-76
2022/12/04 06:14:39;;;;;;;94.40;52.90;;;;;;;-1.00;80.13;97737.57;1786041;78;25637;-73
2022/12/04 06:17:06;;;;;;;84.32;47.38;;;;;;;-1.01;80.03;97745.16;1795094;79;26111;-76
2022/12/04 06:19:33;;;;;;;85.45;48.20;;;;;;;-1.04;79.98;97745.42;1767741;79;25882;-73
2022/12/04 06:21:59;;;;;;;85.35;49.10;;;;;;;-1.05;80.03;97741.09;1765267;79;27374;-73
2022/12/04 06:24:26;;;;;;;83.72;47.98;;;;;;;-1.05;80.01;97737.95;1786952;78;25502;-73
2022/12/04 06:26:59;;;;;;;75.57;44.40;;;;;;;-1.05;79.98;97733.14;1749111;80;25694;-74
2022/12/04 06:29:26;;;;;;;75.25;43.38;;;;;;;-1.04;80.00;97725.55;1768842;79;25726;-73
2022/12/04 06:31:52;;;;;;;73.17;45.40;;;;;;;-1.05;79.95;97727.36;1733092;81;25754;-74
2022/12/04 06:34:19;;;;;;;76.50;44.27;;;;;;;-1.05;79.97;97724.70;1765010;78;27334;-73
2022/12/04 06:36:45;;;;;;;75.83;45.48;;;;;;;-1.04;79.91;97728.20;1763158;79;25673;-73
2022/12/04 06:39:12;;;;;;;72.20;42.48;;;;;;;-1.04;79.87;97733.50;1739543;79;25775;-73
2022/12/04 06:41:39;;;;;;;78.47;44.93;;;;;;;-1.08;79.77;97736.88;1743834;81;25533;-73
2022/12/04 06:44:05;;;;;;;74.62;45.33;;;;;;;-1.11;79.73;97735.36;1765050;81;26026;-73
2022/12/04 06:46:33;;;;;;;80.90;46.53;;;;;;;-1.12;79.78;97735.48;1763707;79;27514;-72
2022/12/04 06:49:01;;;;;;;72.12;45.08;;;;;;;-1.11;79.79;97745.12;1763190;80;25644;-73
2022/12/04 06:51:32;;;;;;;70.78;43.38;;;;;;;-1.12;79.76;97742.95;1782871;79;25882;-73
2022/12/04 06:53:59;;;;;;;66.50;41.68;;;;;;;-1.13;79.66;97745.25;1789177;79;25727;-73
2022/12/04 06:56:30;;;;;;;66.25;41.20;;;;;;;-1.13;79.68;97747.89;1784307;79;25786;-73
2022/12/04 06:59:01;;;;;;;65.90;40.60;;;;;;;-1.11;79.71;97751.25;1787143;79;27396;-73
2022/12/04 07:01:31;;;;;;;69.15;41.35;;;;;;;-1.11;79.70;97750.42;1795857;79;25677;-77
2022/12/04 07:03:59;;;;;;;71.15;43.78;;;;;;;-1.10;79.79;97744.99;1775862;79;25705;-72
2022/12/04 07:06:29;;;;;;;71.72;41.55;;;;;;;-1.09;79.83;97743.99;1775432;79;25744;-76
2022/12/04 07:09:07;;;;;;;68.65;42.73;;;;;;;-1.09;79.77;97744.51;1796867;79;25834;-73
2022/12/04 07:11:34;;;;;;;61.40;39.08;;;;;;;-1.13;79.73;97751.87;1710163;82;28200;-76
2022/12/04 07:14:01;;;;;;;65.00;40.35;;;;;;;-1.17;79.80;97749.11;1730494;82;25774;-73
2022/12/04 07:16:28;;;;;;;60.43;37.93;;;;;;;-1.17;79.88;97751.76;1740878;81;25785;-73
2022/12/04 07:18:56;;;;;;;62.35;36.20;;;;;;;-1.15;79.97;97751.16;1761764;81;26386;-74
2022/12/04 07:21:26;;;;;;;59.23;37.00;;;;;;;-1.14;79.99;97750.19;1733304;82;25805;-73
2022/12/04 07:23:57;;;;;;;63.75;38.80;;;;;;;-1.15;79.83;97739.72;1750947;81;27574;-73
2022/12/04 07:26:26;;;;;;;63.42;40.83;;;;;;;-1.19;79.86;97743.58;1720994;81;25774;-75
2022/12/04 07:28:54;;;;;;;65.22;39.78;;;;;;;-1.19;79.86;97735.16;1720950;83;25751;-72
2022/12/04 07:31:24;;;;;;;69.47;43.92;;;;;;;-1.18;79.82;97728.89;1720991;83;26044;-73
2022/12/04 07:33:52;;;;;;;77.60;47.62;;;;;;;-1.18;79.80;97727.56;1721063;83;26512;-72
2022/12/04 07:36:21;;;;;;;81.92;48.87;;;;;;;-1.18;79.78;97722.75;1721001;83;27399;-75
2022/12/04 07:38:48;;;;;;;86.60;53.70;;;;;;;-1.18;79.81;97726.72;1720970;83;25804;-73
2022/12/04 07:41:15;;;;;;;85.92;54.03;;;;;;;-1.18;79.81;97727.56;1721099;83;25761;-73
2022/12/04 07:43:43;;;;;;;92.78;55.88;;;;;;;-1.17;79.86;97723.95;1721003;83;26160;-73
2022/12/04 07:46:19;;;;;;;88.92;57.10;;;;;;;-1.15;79.90;97720.69;1721171;83;25776;-73
2022/12/04 07:48:46;;;;;;;97.35;62.23;;;;;;;-1.13;79.92;97729.34;1695766;83;27546;-73
2022/12/04 07:51:16;;;;;;;100.67;62.17;;;;;;;-1.12;79.95;97728.38;1695795;84;25771;-76
2022/12/04 07:53:43;;;;;;;109.27;65.28;;;;;;;-1.08;80.06;97728.94;1695933;83;25324;-75
2022/12/04 07:56:11;;;;;;;119.62;73.15;;;;;;;-1.03;80.15;97732.53;1695927;84;25493;-75
2022/12/04 07:58:40;;;;;;;115.97;72.50;;;;;;;-0.99;80.13;97728.66;1695844;84;25700;-72
2022/12/04 08:01:17;;;;;;;135.55;80.95;;;;;;;-0.97;80.18;97721.42;1695934;84;27400;-73
2022/12/04 08:03:46;;;;;;;130.55;79.87;;;;;;;-0.94;80.18;97720.65;1638483;86;25772;-72
2022/12/04 08:06:12;;;;;;;125.05;75.20;;;;;;;-0.93;80.25;97722.81;1595893;88;25814;-73
2022/12/04 08:08:39;;;;;;;124.58;75.80;;;;;;;-0.89;80.37;97721.59;1662016;83;25746;-71
2022/12/04 08:11:09;;;;;;;127.40;77.72;;;;;;;-0.84;80.44;97722.02;1678666;84;25729;-72
2022/12/04 08:13:36;;;;;;;126.90;75.57;;;;;;;-0.75;80.54;97719.91;1678357;84;27452;-73
2022/12/04 08:16:04;;;;;;;122.58;70.20;;;;;;;-0.67;80.58;97735.14;1694850;83;25812;-73
2022/12/04 08:18:32;;;;;;;119.10;70.50;;;;;;;-0.61;80.56;97736.79;1689334;83;25691;-76
2022/12/04 08:21:10;;;;;;;130.20;78.62;;;;;;;-0.58;80.56;97734.33;1689475;83;26164;-73
2022/12/04 08:23:38;;;;;;;129.53;75.90;;;;;;;-0.55;80.64;97734.91;1689427;83;25796;-72
2022/12/04 08:26:06;;;;;;;129.75;78.07;;;;;;;-0.51;80.61;97724.40;1689583;83;28263;-72
2022/12/04 08:28:34;;;;;;;127.45;76.12;;;;;;;-0.47;80.56;97716.50;1689481;83;26258;-71
2022/12/04 08:31:06;;;;;;;123.25;76.92;;;;;;;-0.43;80.56;97717.92;1689647;83;25761;-74
2022/12/04 08:33:34;;;;;;;129.00;77.80;;;;;;;-0.39;80.62;97723.80;1689596;83;25793;-73
2022/12/04 08:36:00;;;;;;;126.15;76.92;;;;;;;-0.31;80.78;97724.44;1689812;83;25833;-75
2022/12/04 08:38:27;;;;;;;141.62;84.67;;;;;;;-0.20;80.94;97723.84;1689859;83;28016;-73
2022/12/04 08:40:53;;;;;;;136.68;86.00;;;;;;;-0.14;80.96;97731.75;1687340;83;25720;-73
2022/12/04 08:43:20;;;;;;;138.10;82.95;;;;;;;-0.07;81.03;97723.09;1681624;83;25304;-73
2022/12/04 08:46:00;;;;;;;145.53;88.85;;;;;;;-0.01;80.88;97727.03;1703773;82;25753;-73
2022/12/04 08:48:27;;;;;;;149.32;93.17;;;;;;;0.00;80.78;97727.38;1720450;82;25864;-75
2022/12/04 08:50:54;;;;;;;144.32;89.92;;;;;;;0.07;80.86;97727.66;1721553;82;28251;-75
2022/12/04 08:53:22;;;;;;;141.00;88.72;;;;;;;0.24;81.02;97727.80;1721455;82;25738;-72
2022/12/04 08:55:51;;;;;;;138.52;88.30;;;;;;;0.48;81.12;97730.55;1721954;80;25763;-74
2022/12/04 08:58:19;;;;;;;134.12;85.57;;;;;;;0.72;81.15;97724.30;1721557;80;25394;-73
2022/12/04 09:00:46;;;;;;;141.22;88.58;;;;;;;0.90;80.97;97727.05;1768098;77;25810;-73
2022/12/04 09:03:16;;;;;;;134.90;81.82;;;;;;;1.09;81.02;97725.17;1798358;77;28200;-75
2022/12/04 09:08:14;;;;;;;134.67;82.50;;;;;;;1.56;81.19;97713.18;1725257;81;25865;-73
2022/12/04 09:10:44;;;;;;;112.83;73.87;;;;;;;1.81;81.17;97712.45;1727555;81;25731;-75
2022/12/04 09:13:11;;;;;;;116.50;72.00;;;;;;;2.04;81.08;97716.05;1741063;81;25746;-72
2022/12/04 09:15:41;;;;;;;105.22;67.67;;;;;;;2.29;81.14;97708.65;1741207;82;27414;-72
2022/12/04 09:18:08;;;;;;;112.95;71.35;;;;;;;2.53;80.95;97716.02;1740623;81;25839;-73
2022/12/04 09:20:36;;;;;;;102.67;68.28;;;;;;;2.78;80.87;97714.36;1737218;81;25788;-73
2022/12/04 09:23:04;;;;;;;105.55;68.30;;;;;;;3.03;80.64;97720.71;1725303;81;25752;-73
2022/12/04 09:25:36;;;;;;;96.75;60.80;;;;;;;3.26;80.48;97724.03;1736046;82;25477;-73
2022/12/04 09:28:04;;;;;;;105.70;65.03;;;;;;;3.48;80.08;97721.83;1722665;82;27610;-73
2022/12/04 09:30:30;;;;;;;108.90;66.85;;;;;;;3.61;79.47;97716.89;1731357;81;25778;-75
2022/12/04 09:32:57;;;;;;;107.95;66.62;;;;;;;3.68;78.96;97715.24;1736494;81;25810;-73
2022/12/04 09:35:24;;;;;;;103.72;62.98;;;;;;;3.77;78.89;97721.44;1725727;81;26219;-73
2022/12/04 09:37:51;;;;;;;102.65;63.08;;;;;;;3.89;79.04;97714.31;1738463;81;25930;-75
2022/12/04 09:40:27;;;;;;;101.95;64.40;;;;;;;4.05;79.04;97698.84;1740890;81;27590;-73
2022/12/04 09:43:19;;;;;;;93.50;58.73;;;;;;;4.23;78.90;97697.36;1695760;84;25801;-73
2022/12/04 09:45:50;;;;;;;88.00;57.30;;;;;;;4.48;79.07;97691.05;1698625;84;25799;-75
2022/12/04 09:48:19;;;;;;;90.83;56.83;;;;;;;4.84;78.93;97691.54;1698901;83;25850;-73
2022/12/04 09:50:48;;;;;;;97.70;59.67;;;;;;;5.15;78.62;97680.14;1698635;84;25764;-73
2022/12/04 09:53:22;;;;;;;80.87;52.20;;;;;;;5.37;78.32;97681.59;1698722;84;27397;-73
2022/12/04 09:56:09;;;;;;;73.00;46.15;;;;;;;5.68;78.30;97683.47;1630083;88;25855;-74
2022/12/04 09:58:56;;;;;;;71.92;44.25;;;;;;;6.01;78.10;97671.64;1605325;89;25370;-73
2022/12/04 10:01:40;;;;;;;68.60;43.17;;;;;;;6.33;77.87;97669.25;1605247;89;25451;-75
2022/12/04 10:04:09;;;;;;;55.70;36.03;;;;;;;6.61;77.69;97664.19;1467759;97;25891;-73
2022/12/04 10:07:03;;;;;;;61.13;38.45;;;;;;;6.85;77.28;97662.64;1467760;97;27446;-75
2022/12/04 10:10:24;;;;;;;61.60;41.10;;;;;;;7.09;76.95;97658.05;1467365;97;26761;-73
2022/12/04 10:13:18;;;;;;;79.40;49.48;;;;;;;7.33;76.57;97660.48;1446174;99;25923;-73
2022/12/04 10:16:07;;;;;;;83.45;55.10;;;;;;;7.62;75.98;97655.59;1448440;99;25944;-73
2022/12/04 10:18:45;;;;;;;106.55;67.30;;;;;;;7.85;75.40;97647.41;1447662;99;26640;-74
2022/12/04 10:21:35;;;;;;;90.55;57.10;;;;;;;8.07;75.04;97649.14;1386647;102;27718;-73
2022/12/04 10:24:42;;;;;;;73.37;48.05;;;;;;;8.19;74.55;97644.93;1386546;102;25603;-74
2022/12/04 10:27:26;;;;;;;66.90;44.77;;;;;;;8.14;73.79;97640.63;1386810;102;25964;-73
2022/12/04 10:29:58;;;;;;;62.53;41.63;;;;;;;8.02;73.44;97630.55;1387319;102;26127;-75
2022/12/04 10:32:34;;;;;;;56.18;39.53;;;;;;;7.86;73.08;97630.25;1388845;102;26086;-74
2022/12/04 10:35:26;;;;;;;60.33;39.38;;;;;;;7.87;73.08;97627.89;1386768;103;27493;-73
2022/12/04 10:38:00;;;;;;;55.40;37.38;;;;;;;7.92;73.07;97625.48;1386592;103;25870;-74
2022/12/04 10:40:47;;;;;;;56.70;37.40;;;;;;;8.09;72.97;97620.18;1347836;104;25933;-74
2022/12/04 10:43:39;;;;;;;54.50;35.95;;;;;;;8.28;72.95;97618.23;1402538;95;25913;-74
2022/12/04 10:46:11;;;;;;;50.70;34.25;;;;;;;8.57;72.79;97615.13;1499544;95;25825;-73
2022/12/04 10:48:39;;;;;;;52.43;35.17;;;;;;;8.78;72.51;97615.09;1499624;95;27508;-74
2022/12/04 10:51:14;;;;;;;62.65;42.98;;;;;;;8.98;72.20;97603.11;1501835;95;25745;-74
2022/12/04 10:53:41;;;;;;;58.20;39.85;;;;;;;9.21;71.89;97589.38;1528738;93;25881;-74
2022/12/04 10:56:14;;;;;;;53.20;36.17;;;;;;;9.37;71.33;97588.55;1515168;93;25909;-74
2022/12/04 10:58:41;;;;;;;51.05;35.48;;;;;;;9.49;70.95;97580.73;1539437;92;25825;-73
2022/12/04 11:01:12;;;;;;;48.60;32.05;;;;;;;9.56;70.76;97589.67;1539274;92;26927;-74
2022/12/04 11:03:39;;;;;;;43.52;28.38;;;;;;;9.65;70.55;97595.23;1491265;94;25988;-73
2022/12/04 11:06:10;;;;;;;40.08;28.23;;;;;;;9.87;70.59;97593.75;1468802;96;25821;-73
2022/12/04 11:08:40;;;;;;;43.25;30.57;;;;;;;10.10;70.12;97591.53;1491324;94;25571;-76
2022/12/04 11:11:11;;;;;;;45.95;30.32;;;;;;;10.29;69.96;97580.48;1478678;96;25816;-73
2022/12/04 11:13:40;;;;;;;48.35;30.50;;;;;;;10.46;69.32;97579.91;1489617;94;28362;-75
2022/12/04 11:16:12;;;;;;;44.75;29.92;;;;;;;10.54;68.98;97575.33;1489520;94;25839;-74
2022/12/04 11:18:50;;;;;;;42.27;30.17;;;;;;;10.61;68.64;97573.48;1540999;91;26144;-73
2022/12/04 11:21:23;;;;;;;43.63;31.00;;;;;;;10.69;68.56;97570.56;1536042;91;25964;-74
2022/12/04 11:23:52;;;;;;;40.52;29.23;;;;;;;10.81;67.85;97567.55;1537921;91;26458;-75
2022/12/04 11:26:36;;;;;;;43.40;30.88;;;;;;;10.93;68.11;97564.52;1540149;91;28422;-75
2022/12/04 11:29:05;;;;;;;40.75;26.90;;;;;;;11.02;67.50;97557.85;1540184;91;25847;-74
2022/12/04 11:31:32;;;;;;;36.17;25.05;;;;;;;11.12;67.35;97562.30;1520956;93;25932;-76
2022/12/04 11:34:08;;;;;;;34.03;23.18;;;;;;;11.26;67.36;97550.11;1540103;91;25913;-76
2022/12/04 11:36:40;;;;;;;36.38;25.17;;;;;;;11.49;67.39;97550.45;1542464;91;25856;-76
2022/12/04 11:39:18;;;;;;;37.73;24.37;;;;;;;11.75;66.87;97549.02;1556265;90;27437;-74
2022/12/04 11:41:45;;;;;;;32.15;21.85;;;;;;;11.95;66.29;97553.00;1556601;90;25931;-76
2022/12/04 11:44:31;;;;;;;31.00;22.32;;;;;;;12.03;65.73;97547.85;1556526;90;25865;-76
2022/12/04 11:47:01;;;;;;;39.67;23.30;;;;;;;12.10;65.40;97560.80;1556574;90;25834;-76
2022/12/04 11:49:31;;;;;;;32.42;23.22;;;;;;;12.14;65.05;97560.69;1559023;88;25917;-76
2022/12/04 11:52:20;;;;;;;34.13;23.73;;;;;;;12.13;64.66;97565.79;1591446;88;27584;-76